Motoplanete

Classement Grand Prix Motul de Valence Moto2 2015

Course disputée sur le circuit de Ricardo Tormo

Position Numéro Pilote Team Temps Tours Points Départ
1 1 Tito Rabat Eg 0,0 Marc Vds 01:13:51 18 25 1
2 40 Alex Rins Paginas Amarillas Hp 40 01:19:00 18 20 3
3 12 Thomas Luthi Derendinger Racing Interwetten 02:09:38 18 16 4
4 7 Lorenzo Baldassarri Athinà Forward Racing 02:14:35 18 13 5
5 22 Sam Lowes Speed Up 02:39:31 18 11 10
6 39 Luis Salom Paginas Amarillas Hp 40 03:52:10 18 10 12
7 5 Johann Zarco Ajo Motorsport 03:57:45 18 9 2
8 49 Alex Pons Agr Team 04:20:28 18 8 7
9 3 Simone Corsi Athinà Forward Racing 04:27:22 18 7 9
10 36 Mika Kallio Italtrans Racing Team 06:02:22 18 6 15
11 30 Takaaki Nakagami Idemitsu Honda Team Asia 07:00:15 18 5 8
12 73 Alex Marquez Eg 0,0 Marc Vds 07:08:47 18 4 14
13 11 Sandro Cortese Dynavolt Intact Gp 07:11:26 18 3 13
14 94 Jonas Folger Agr Team 07:13:11 18 2 18
15 23 Marcel Schrotter Tech 3 08:05:00 18 1 21
16 19 Xavier Simeon Federal Oil Gresini Moto2 09:03:41 18 0 23
17 97 Xavi Vierge Tech 3 09:09:28 18 0 22
18 60 Julian Simon QMMF Racing Team 09:13:13 18 0 6
19 88 Ricard Cardus Tech 3 09:17:28 18 0 17
20 66 Florian Alt Octo Iodaracing Team 09:22:08 18 0 19
21 4 Randy Krummenacher Jir Racing Team 09:46:59 18 0 20
22 70 Robin Mulhauser Technomag Racing Interwetten 10:07:39 18 0 26
23 10 Thitipong Warokorn Aph Ptt The Pizza Sag 11:31:15 18 0 28
24 2 Jesko Raffin Sports-millions-emwe-sag 11:32:18 18 0 27
25 32 Frederico Fuligni Ciatti 14:21:10 18 0 29
26 16 Joshua Hook Technomag Racing Interwetten 14:32:12 18 0 30
27 90 Lucas Mahias Promoto Sport 05:17:52 13 0 16
28 57 Edgar Pons Paginas Amarillas Hp 40 12:53:37 3 0 25